createdAt,value
2018-04-26T00:00:12.817Z,981.42
2018-04-26T00:01:13.010Z,981.42
2018-04-26T00:03:45.102Z,981.45
2018-04-26T00:04:45.278Z,981.48
2018-04-26T00:05:45.476Z,981.47
2018-04-26T00:06:45.677Z,981.48
2018-04-26T00:07:45.858Z,981.46
2018-04-26T00:10:18.189Z,981.41
2018-04-26T00:11:18.355Z,981.41
2018-04-26T00:12:18.542Z,981.42
2018-04-26T00:13:18.734Z,981.42
2018-04-26T00:14:18.931Z,981.40
2018-04-26T00:15:19.132Z,981.40
2018-04-26T00:16:19.318Z,981.38
2018-04-26T00:17:19.526Z,981.39
2018-04-26T00:19:51.615Z,981.39
2018-04-26T00:20:51.783Z,981.41
2018-04-26T00:21:51.973Z,981.42
2018-04-26T00:22:52.149Z,981.41
2018-04-26T00:23:52.355Z,981.44
2018-04-26T00:24:52.560Z,981.44
2018-04-26T00:25:52.752Z,981.54
2018-04-26T00:26:52.936Z,981.55
2018-04-26T00:27:53.252Z,981.58
2018-04-26T00:28:53.330Z,981.57
2018-04-26T00:29:53.537Z,981.58
2018-04-26T00:30:53.746Z,981.57
2018-04-26T00:31:53.948Z,981.55
2018-04-26T00:32:54.155Z,981.51
2018-04-26T00:33:54.340Z,981.50
2018-04-26T00:34:54.522Z,981.48
2018-04-26T00:35:54.707Z,981.48
2018-04-26T00:36:54.897Z,981.45
2018-04-26T00:37:55.096Z,981.45
2018-04-26T00:38:55.289Z,981.41
2018-04-26T00:39:55.492Z,981.43
2018-04-26T00:40:55.680Z,981.45
2018-04-26T00:41:55.865Z,981.49
2018-04-26T00:42:56.046Z,981.48
2018-04-26T00:43:56.241Z,981.47
2018-04-26T00:44:56.428Z,981.48
2018-04-26T00:45:56.630Z,981.46
2018-04-26T00:46:56.884Z,981.43
2018-04-26T00:47:57.104Z,981.44
2018-04-26T00:48:57.250Z,981.43
2018-04-26T00:49:57.448Z,981.45
2018-04-26T00:50:57.647Z,981.44
2018-04-26T00:51:57.856Z,981.48
2018-04-26T00:52:58.110Z,981.49
2018-04-26T00:53:58.241Z,981.45
2018-04-26T00:54:58.428Z,981.46
2018-04-26T00:55:58.606Z,981.48
2018-04-26T00:56:58.792Z,981.47
2018-04-26T00:57:58.993Z,981.48
2018-04-26T00:58:59.186Z,981.50
2018-04-26T00:59:59.437Z,981.49
2018-04-26T01:00:59.619Z,981.44
2018-04-26T01:01:59.819Z,981.49
2018-04-26T01:03:00.010Z,981.53
2018-04-26T01:04:00.201Z,981.58
2018-04-26T01:05:00.381Z,981.58
2018-04-26T01:06:00.566Z,981.61
2018-04-26T01:07:00.778Z,981.58
2018-04-26T01:08:00.984Z,981.53
2018-04-26T01:09:01.183Z,981.56
2018-04-26T01:10:01.390Z,981.51
2018-04-26T01:11:01.570Z,981.51
2018-04-26T01:12:01.767Z,981.57
2018-04-26T01:13:01.950Z,981.55
2018-04-26T01:14:02.145Z,981.59
2018-04-26T01:16:34.415Z,981.62
2018-04-26T01:17:34.584Z,981.62
2018-04-26T01:18:34.790Z,981.66
2018-04-26T01:19:34.997Z,981.68
2018-04-26T01:22:06.843Z,981.75
2018-04-26T01:23:07.010Z,981.76
2018-04-26T01:24:07.227Z,981.73
2018-04-26T01:25:07.428Z,981.74
2018-04-26T01:26:07.603Z,981.75
2018-04-26T01:27:07.797Z,981.78
2018-04-26T01:28:07.996Z,981.80
2018-04-26T01:29:08.197Z,981.79
2018-04-26T01:30:08.387Z,981.72
2018-04-26T01:31:08.581Z,981.75
2018-04-26T01:32:08.760Z,981.77
2018-04-26T01:33:08.965Z,981.75
2018-04-26T01:34:09.169Z,981.70
2018-04-26T01:35:09.367Z,981.69
2018-04-26T01:36:09.571Z,981.70
2018-04-26T01:38:43.411Z,981.68
2018-04-26T01:39:41.957Z,981.65
2018-04-26T01:40:42.135Z,981.62
2018-04-26T01:41:42.321Z,981.68
2018-04-26T01:42:42.552Z,981.67
2018-04-26T01:43:42.764Z,981.72
2018-04-26T01:44:42.936Z,981.72
2018-04-26T01:45:43.130Z,981.74
2018-04-26T01:46:43.325Z,981.72
2018-04-26T01:47:43.508Z,981.72
2018-04-26T01:48:43.690Z,981.74
2018-04-26T01:49:43.867Z,981.70
2018-04-26T01:50:44.054Z,981.70
2018-04-26T01:51:44.239Z,981.74
2018-04-26T01:52:44.421Z,981.70
2018-04-26T01:53:44.619Z,981.74
2018-04-26T01:54:44.804Z,981.67
2018-04-26T01:55:45.009Z,981.72
2018-04-26T01:56:45.346Z,981.72
2018-04-26T01:57:45.434Z,981.72
2018-04-26T01:58:45.636Z,981.76
2018-04-26T01:59:45.829Z,981.72
2018-04-26T02:00:46.035Z,981.73
2018-04-26T02:01:46.221Z,981.73
2018-04-26T02:02:46.399Z,981.71
2018-04-26T02:03:46.590Z,981.74
2018-04-26T02:04:46.805Z,981.71
2018-04-26T02:05:47.009Z,981.71
2018-04-26T02:06:47.195Z,981.72
2018-04-26T02:07:47.446Z,981.74
2018-04-26T02:08:47.641Z,981.70
2018-04-26T02:09:47.820Z,981.73
2018-04-26T02:10:48.022Z,981.77
2018-04-26T02:11:48.224Z,981.72
2018-04-26T02:12:48.402Z,981.75
2018-04-26T02:13:48.618Z,981.74
2018-04-26T02:14:48.820Z,981.72
2018-04-26T02:15:49.002Z,981.75
2018-04-26T02:16:49.198Z,981.69
2018-04-26T02:17:49.391Z,981.75
2018-04-26T02:20:23.228Z,981.69
2018-04-26T02:21:21.646Z,981.66
2018-04-26T02:22:21.820Z,981.66
2018-04-26T02:23:22.006Z,981.67
2018-04-26T02:24:22.189Z,981.67
2018-04-26T02:25:22.369Z,981.69
2018-04-26T02:26:22.567Z,981.69
2018-04-26T02:27:22.784Z,981.68
2018-04-26T02:28:22.973Z,981.68
2018-04-26T02:29:23.176Z,981.67
2018-04-26T02:30:23.375Z,981.69
2018-04-26T02:31:23.561Z,981.68
2018-04-26T02:32:23.768Z,981.71
2018-04-26T02:33:23.955Z,981.71
2018-04-26T02:34:24.158Z,981.72
2018-04-26T02:35:24.336Z,981.71
2018-04-26T02:36:24.522Z,981.68
2018-04-26T02:37:24.702Z,981.65
2018-04-26T02:38:25.008Z,981.64
2018-04-26T02:39:25.075Z,981.69
2018-04-26T02:40:25.249Z,981.64
2018-04-26T02:41:25.463Z,981.65
2018-04-26T02:42:25.640Z,981.66
2018-04-26T02:43:25.833Z,981.60
2018-04-26T02:44:26.035Z,981.62
2018-04-26T02:45:26.220Z,981.64
2018-04-26T02:46:26.425Z,981.60
2018-04-26T02:47:26.632Z,981.63
2018-04-26T02:48:26.819Z,981.61
2018-04-26T02:49:27.007Z,981.64
2018-04-26T02:50:27.204Z,981.62
2018-04-26T02:51:27.398Z,981.62
2018-04-26T02:52:27.580Z,981.61
2018-04-26T02:53:27.773Z,981.60
2018-04-26T02:54:27.976Z,981.64
2018-04-26T02:55:28.182Z,981.66
2018-04-26T02:56:28.379Z,981.64
2018-04-26T02:59:00.474Z,981.66
2018-04-26T03:00:00.642Z,981.62
2018-04-26T03:01:00.836Z,981.68
2018-04-26T03:02:01.038Z,981.65
2018-04-26T03:03:01.244Z,981.64
2018-04-26T03:04:01.419Z,981.64
2018-04-26T03:05:01.619Z,981.67
2018-04-26T03:06:01.807Z,981.65
2018-04-26T03:07:02.010Z,981.65
2018-04-26T03:08:02.195Z,981.64
2018-04-26T03:09:02.380Z,981.65
2018-04-26T03:10:02.576Z,981.63
2018-04-26T03:11:02.766Z,981.60
2018-04-26T03:12:03.057Z,981.61
2018-04-26T03:13:03.140Z,981.62
2018-04-26T03:14:03.319Z,981.60
2018-04-26T03:15:03.521Z,981.63
2018-04-26T03:16:03.717Z,981.63
2018-04-26T03:17:03.909Z,981.62
2018-04-26T03:18:04.090Z,981.65
2018-04-26T03:19:04.298Z,981.67
2018-04-26T03:20:04.487Z,981.73
2018-04-26T03:21:04.667Z,981.65
2018-04-26T03:22:04.876Z,981.62
2018-04-26T03:23:05.060Z,981.69
2018-04-26T03:24:05.260Z,981.64
2018-04-26T03:25:05.481Z,981.68
2018-04-26T03:26:05.644Z,981.71
2018-04-26T03:27:05.830Z,981.65
2018-04-26T03:28:06.023Z,981.67
2018-04-26T03:29:06.217Z,981.66
2018-04-26T03:30:06.407Z,981.70
2018-04-26T03:31:06.713Z,981.70
2018-04-26T03:32:06.794Z,981.69
2018-04-26T03:33:07.003Z,981.67
2018-04-26T03:34:07.201Z,981.72
2018-04-26T03:35:07.383Z,981.68
2018-04-26T03:36:07.560Z,981.70
2018-04-26T03:37:07.765Z,981.71
2018-04-26T03:38:07.966Z,981.72
2018-04-26T03:39:08.173Z,981.69
2018-04-26T03:40:08.357Z,981.73
2018-04-26T03:41:08.544Z,981.69
2018-04-26T03:42:08.727Z,981.74
2018-04-26T03:43:08.906Z,981.71
2018-04-26T03:44:09.106Z,981.71
2018-04-26T03:45:09.312Z,981.74
2018-04-26T03:46:09.483Z,981.76
2018-04-26T03:47:09.666Z,981.79
2018-04-26T03:48:09.848Z,981.74
2018-04-26T03:49:10.024Z,981.77
2018-04-26T03:50:10.214Z,981.80
2018-04-26T03:51:10.384Z,981.82
2018-04-26T03:52:10.569Z,981.78
2018-04-26T03:54:42.666Z,981.78
2018-04-26T03:55:42.835Z,981.79
2018-04-26T03:56:43.018Z,981.82
2018-04-26T03:57:43.227Z,981.78
2018-04-26T03:58:43.424Z,981.82
2018-04-26T03:59:43.610Z,981.77
2018-04-26T04:00:43.804Z,981.81
2018-04-26T04:01:44.004Z,981.80
2018-04-26T04:02:44.189Z,981.80
2018-04-26T04:03:44.373Z,981.80
2018-04-26T04:04:44.565Z,981.80
2018-04-26T04:05:44.830Z,981.76
2018-04-26T04:06:44.960Z,981.79
2018-04-26T04:07:45.154Z,981.77
2018-04-26T04:08:45.340Z,981.77
2018-04-26T04:09:45.545Z,981.75
2018-04-26T04:10:45.724Z,981.78
2018-04-26T04:11:45.917Z,981.81
2018-04-26T04:12:46.128Z,981.86
2018-04-26T04:15:19.458Z,981.81
2018-04-26T04:16:18.132Z,981.82
2018-04-26T04:17:18.310Z,981.79
2018-04-26T04:18:18.509Z,981.87
2018-04-26T04:19:18.705Z,981.89
2018-04-26T04:20:18.902Z,981.85
2018-04-26T04:22:51.012Z,981.92
2018-04-26T04:23:51.213Z,981.91
2018-04-26T04:24:51.449Z,981.95
2018-04-26T04:25:51.600Z,981.92
2018-04-26T04:26:51.808Z,981.96
2018-04-26T04:29:23.892Z,981.97
2018-04-26T04:30:24.064Z,981.96
2018-04-26T04:31:24.261Z,982.00
2018-04-26T04:32:24.446Z,982.03
2018-04-26T04:33:24.628Z,982.11
2018-04-26T04:34:24.952Z,982.11
2018-04-26T04:35:25.109Z,982.18
2018-04-26T04:36:25.208Z,982.16
2018-04-26T04:37:25.403Z,982.18
2018-04-26T04:38:25.573Z,982.27
2018-04-26T04:39:25.768Z,982.31
2018-04-26T04:40:25.968Z,982.31
2018-04-26T04:41:26.177Z,982.28
2018-04-26T04:42:26.374Z,982.23
2018-04-26T04:43:26.548Z,982.29
2018-04-26T04:44:26.748Z,982.34
2018-04-26T04:45:26.942Z,982.41
2018-04-26T04:46:27.120Z,982.49
2018-04-26T04:47:27.320Z,982.51
2018-04-26T04:48:27.531Z,982.43
2018-04-26T04:49:27.742Z,982.43
2018-04-26T04:50:27.922Z,982.67
2018-04-26T04:51:28.097Z,982.75
2018-04-26T04:52:28.275Z,982.83
2018-04-26T04:53:28.470Z,982.88
2018-04-26T04:54:28.662Z,983.10
2018-04-26T04:55:28.869Z,983.28
2018-04-26T04:56:29.086Z,983.28
2018-04-26T04:57:29.293Z,983.35
2018-04-26T04:58:29.490Z,983.45
2018-04-26T04:59:29.693Z,983.71
2018-04-26T05:00:29.892Z,983.86
2018-04-26T05:01:30.164Z,983.67
2018-04-26T05:02:30.293Z,983.58
2018-04-26T05:03:30.481Z,983.57
2018-04-26T05:04:30.663Z,983.51
2018-04-26T05:05:30.857Z,982.82
2018-04-26T05:06:31.041Z,982.79
2018-04-26T05:07:31.247Z,982.76
2018-04-26T05:08:31.452Z,982.68
2018-04-26T05:09:31.651Z,982.65
2018-04-26T05:10:31.841Z,982.62
2018-04-26T05:11:32.053Z,982.71
2018-04-26T05:12:32.258Z,982.68
2018-04-26T05:13:32.487Z,982.65
2018-04-26T05:14:32.670Z,982.72
2018-04-26T05:15:32.877Z,982.69
2018-04-26T05:16:33.063Z,982.75
2018-04-26T05:17:33.256Z,982.73
2018-04-26T05:18:33.471Z,982.68
2018-04-26T05:19:33.668Z,982.69
2018-04-26T05:20:33.850Z,982.69
2018-04-26T05:21:34.051Z,982.71
2018-04-26T05:22:34.242Z,982.66
2018-04-26T05:23:34.446Z,982.68
2018-04-26T05:24:34.638Z,982.73
2018-04-26T05:25:34.920Z,982.76
2018-04-26T05:26:35.056Z,982.93
2018-04-26T05:27:35.295Z,982.89
2018-04-26T05:28:35.477Z,984.26
2018-04-26T05:29:35.668Z,985.03
2018-04-26T05:30:35.925Z,983.46
2018-04-26T05:31:36.041Z,987.04
2018-04-26T05:32:36.248Z,986.97
2018-04-26T05:33:36.459Z,986.59
2018-04-26T05:34:36.662Z,986.66
2018-04-26T05:35:36.845Z,986.65
2018-04-26T05:36:37.041Z,986.69
2018-04-26T05:37:37.234Z,987.00
2018-04-26T05:38:37.500Z,987.15
2018-04-26T05:39:37.574Z,987.04
2018-04-26T05:40:37.794Z,987.00
2018-04-26T05:41:37.950Z,986.64
2018-04-26T05:42:38.131Z,987.01
2018-04-26T05:43:38.332Z,986.54
2018-04-26T05:44:38.554Z,985.18
2018-04-26T05:45:38.738Z,986.24
2018-04-26T05:46:38.940Z,987.00
2018-04-26T05:47:39.157Z,986.78
2018-04-26T05:48:39.343Z,986.72
2018-04-26T05:49:39.524Z,986.71
2018-04-26T05:50:39.726Z,986.56
2018-04-26T05:51:39.930Z,986.43
2018-04-26T05:52:40.138Z,985.58
2018-04-26T05:55:12.421Z,986.15
2018-04-26T05:56:12.595Z,986.20
2018-04-26T05:57:12.800Z,986.14
2018-04-26T05:58:12.999Z,986.04
2018-04-26T05:59:13.213Z,985.85
2018-04-26T06:00:13.413Z,985.74
2018-04-26T06:01:13.625Z,985.63
2018-04-26T06:02:13.831Z,985.50
2018-04-26T06:03:14.013Z,985.40
2018-04-26T06:04:14.197Z,983.55
2018-04-26T06:05:14.396Z,983.62
2018-04-26T06:06:14.602Z,983.57
2018-04-26T06:07:14.813Z,983.48
2018-04-26T06:08:15.001Z,983.44
2018-04-26T06:09:15.202Z,983.42
2018-04-26T06:10:15.391Z,984.20
2018-04-26T06:11:15.627Z,983.49
2018-04-26T06:12:15.792Z,983.40
2018-04-26T06:13:16.005Z,983.57
2018-04-26T06:14:16.191Z,983.48
2018-04-26T06:15:16.405Z,983.39
2018-04-26T06:16:16.609Z,983.27
2018-04-26T06:17:16.805Z,983.22
2018-04-26T06:18:17.017Z,983.21
2018-04-26T06:19:17.201Z,983.19
2018-04-26T06:20:17.392Z,983.14
2018-04-26T06:21:17.609Z,983.12
2018-04-26T06:22:17.804Z,983.18
2018-04-26T06:23:18.017Z,983.23
2018-04-26T06:24:18.211Z,983.23
2018-04-26T06:25:18.392Z,983.20
2018-04-26T06:26:18.603Z,983.23
2018-04-26T06:27:18.793Z,983.28
2018-04-26T06:28:19.122Z,983.26
2018-04-26T06:29:19.203Z,983.20
2018-04-26T06:30:19.392Z,983.24
2018-04-26T06:31:19.593Z,983.53
2018-04-26T06:32:19.783Z,984.16
2018-04-26T06:33:19.973Z,983.71
2018-04-26T06:34:20.152Z,984.32
2018-04-26T06:35:20.343Z,983.57
2018-04-26T06:36:20.551Z,983.53
2018-04-26T06:37:20.743Z,983.50
2018-04-26T06:38:20.956Z,983.49
2018-04-26T06:39:21.158Z,983.41
2018-04-26T06:40:21.352Z,983.39
2018-04-26T06:41:21.557Z,983.46
2018-04-26T06:42:21.781Z,983.58
2018-04-26T06:43:21.974Z,983.53
2018-04-26T06:44:22.158Z,983.60
2018-04-26T06:45:22.351Z,983.55
2018-04-26T06:46:22.541Z,983.55
2018-04-26T06:47:22.752Z,983.58
2018-04-26T06:48:22.939Z,983.51
2018-04-26T06:49:23.122Z,983.51
2018-04-26T06:50:23.331Z,983.48
2018-04-26T06:51:23.531Z,983.47
2018-04-26T06:52:23.718Z,983.47
2018-04-26T06:53:24.017Z,983.44
2018-04-26T06:54:24.145Z,983.44
2018-04-26T06:55:24.343Z,983.43
2018-04-26T06:56:24.552Z,983.45
2018-04-26T06:57:24.767Z,983.45
2018-04-26T06:58:24.965Z,983.43
2018-04-26T06:59:25.159Z,983.39
2018-04-26T07:00:25.401Z,983.41
2018-04-26T07:01:25.553Z,983.43
2018-04-26T07:02:25.733Z,983.51
2018-04-26T07:03:25.922Z,983.49
2018-04-26T07:04:26.131Z,983.46
2018-04-26T07:05:26.313Z,983.44
2018-04-26T07:06:26.513Z,983.52
2018-04-26T07:07:26.692Z,983.44
2018-04-26T07:08:26.904Z,983.43
2018-04-26T07:09:27.092Z,983.54
2018-04-26T07:10:27.273Z,983.51
2018-04-26T07:11:27.489Z,983.58
2018-04-26T07:12:27.698Z,983.84
2018-04-26T07:13:27.879Z,983.75
2018-04-26T07:14:28.073Z,983.67
2018-04-26T07:15:28.269Z,983.87
2018-04-26T07:16:28.454Z,984.91
2018-04-26T07:17:28.663Z,984.56
2018-04-26T07:18:28.900Z,985.36
2018-04-26T07:19:29.092Z,985.03
2018-04-26T07:20:29.310Z,984.44
2018-04-26T07:21:29.499Z,984.14
2018-04-26T07:22:29.690Z,984.08
2018-04-26T07:23:29.900Z,984.04
2018-04-26T07:24:30.085Z,984.11
2018-04-26T07:25:30.292Z,985.05
2018-04-26T07:26:30.478Z,984.28
2018-04-26T07:27:30.681Z,984.50
2018-04-26T07:28:30.895Z,985.01
2018-04-26T07:29:31.178Z,985.37
2018-04-26T07:30:31.261Z,984.15
2018-04-26T07:31:31.451Z,984.71
2018-04-26T07:32:31.648Z,984.60
2018-04-26T07:33:31.870Z,984.86
2018-04-26T07:34:32.070Z,985.33
2018-04-26T07:35:32.268Z,985.24
2018-04-26T07:36:32.471Z,984.95
2018-04-26T07:37:32.674Z,984.96
2018-04-26T07:38:32.881Z,984.65
2018-04-26T07:39:33.090Z,984.26
2018-04-26T07:40:33.328Z,984.15
2018-04-26T07:41:33.540Z,984.07
2018-04-26T07:42:33.752Z,984.15
2018-04-26T07:43:33.960Z,984.17
2018-04-26T07:44:34.162Z,984.02
2018-04-26T07:45:34.371Z,984.02
2018-04-26T07:46:34.565Z,983.98
2018-04-26T07:47:34.751Z,984.01
2018-04-26T07:48:34.963Z,983.96
2018-04-26T07:49:35.153Z,983.98
2018-04-26T07:50:35.346Z,984.15
2018-04-26T07:51:35.540Z,984.09
2018-04-26T07:52:35.752Z,984.19
2018-04-26T07:53:35.953Z,984.13
2018-04-26T07:54:36.160Z,984.11
2018-04-26T07:55:36.362Z,985.10
2018-04-26T07:56:36.561Z,984.16
2018-04-26T07:57:36.772Z,984.07
2018-04-26T07:58:37.031Z,985.23
2018-04-26T07:59:37.215Z,985.24
2018-04-26T08:00:37.402Z,985.20
2018-04-26T08:01:37.697Z,985.33
2018-04-26T08:02:37.808Z,985.31
2018-04-26T08:03:38.021Z,985.46
2018-04-26T08:04:38.238Z,985.41
2018-04-26T08:05:38.444Z,985.43
2018-04-26T08:06:38.657Z,985.47
2018-04-26T08:07:38.890Z,985.01
2018-04-26T08:08:39.091Z,985.43
2018-04-26T08:09:39.283Z,984.33
2018-04-26T08:10:39.466Z,985.50
2018-04-26T08:11:39.713Z,984.52
2018-04-26T08:12:39.886Z,985.23
2018-04-26T08:13:40.082Z,985.50
2018-04-26T08:14:40.291Z,985.52
2018-04-26T08:15:40.483Z,985.59
2018-04-26T08:16:40.690Z,985.56
2018-04-26T08:17:40.891Z,985.58
2018-04-26T08:18:41.110Z,984.52
2018-04-26T08:19:41.404Z,985.70
2018-04-26T08:20:41.512Z,984.64
2018-04-26T08:21:41.726Z,984.51
2018-04-26T08:22:41.945Z,984.59
2018-04-26T08:23:42.141Z,984.46
2018-04-26T08:24:42.361Z,985.47
2018-04-26T08:25:42.550Z,984.61
2018-04-26T08:26:42.754Z,984.79
2018-04-26T08:27:42.951Z,985.73
2018-04-26T08:28:43.291Z,985.70
2018-04-26T08:29:43.375Z,985.64
2018-04-26T08:30:43.593Z,985.53
2018-04-26T08:31:43.791Z,984.76
2018-04-26T08:34:16.699Z,985.68
2018-04-26T08:35:16.257Z,985.75
2018-04-26T08:36:16.459Z,985.63
2018-04-26T08:37:16.666Z,985.66
2018-04-26T08:38:16.859Z,985.84
2018-04-26T08:39:17.053Z,985.78
2018-04-26T08:40:17.278Z,985.64
2018-04-26T08:41:17.487Z,985.06
2018-04-26T08:42:17.715Z,985.60
2018-04-26T08:43:17.924Z,985.54
2018-04-26T08:44:18.118Z,985.61
2018-04-26T08:45:18.320Z,985.37
2018-04-26T08:46:18.508Z,985.55
2018-04-26T08:47:18.705Z,985.55
2018-04-26T08:48:18.919Z,985.57
2018-04-26T08:49:19.108Z,985.57
2018-04-26T08:50:19.313Z,985.53
2018-04-26T08:51:19.502Z,985.67
2018-04-26T08:52:19.743Z,985.54
2018-04-26T08:53:19.895Z,985.55
2018-04-26T08:54:20.103Z,985.57
2018-04-26T08:55:20.305Z,984.62
2018-04-26T08:56:20.499Z,985.46
2018-04-26T08:57:20.764Z,985.57
2018-04-26T08:58:20.858Z,985.30
2018-04-26T08:59:21.061Z,985.55
2018-04-26T09:00:21.264Z,985.55
2018-04-26T09:01:21.482Z,985.56
2018-04-26T09:02:21.692Z,985.55
2018-04-26T09:03:21.906Z,985.65
2018-04-26T09:04:22.126Z,985.50
2018-04-26T09:05:22.339Z,985.47
2018-04-26T09:06:22.541Z,985.52
2018-04-26T09:08:54.752Z,985.57
2018-04-26T09:09:54.806Z,985.44
2018-04-26T09:10:54.999Z,985.50
2018-04-26T09:11:55.212Z,985.38
2018-04-26T09:12:55.432Z,985.25
2018-04-26T09:13:55.620Z,985.17
2018-04-26T09:14:55.829Z,985.27
2018-04-26T09:15:56.107Z,985.37
2018-04-26T09:16:56.241Z,984.90
2018-04-26T09:17:56.454Z,985.23
2018-04-26T09:18:56.650Z,984.90
2018-04-26T09:19:56.840Z,985.24
2018-04-26T09:20:57.047Z,985.46
2018-04-26T09:21:57.265Z,985.07
2018-04-26T09:22:57.468Z,984.93
2018-04-26T09:23:57.662Z,984.82
2018-04-26T09:24:57.864Z,984.73
2018-04-26T09:25:58.070Z,984.70
2018-04-26T09:26:58.282Z,984.69
2018-04-26T09:27:58.498Z,984.60
2018-04-26T09:28:58.712Z,985.01
2018-04-26T09:29:58.957Z,985.10
2018-04-26T09:30:59.101Z,984.69
2018-04-26T09:31:59.347Z,985.20
2018-04-26T09:32:59.543Z,985.10
2018-04-26T09:33:59.757Z,985.04
2018-04-26T09:34:59.951Z,984.96
2018-04-26T09:36:00.153Z,985.21
2018-04-26T09:37:00.370Z,984.70
2018-04-26T09:38:00.599Z,984.98
2018-04-26T09:39:00.867Z,984.97
2018-04-26T09:40:01.054Z,985.23
2018-04-26T09:41:01.273Z,985.18
2018-04-26T09:42:01.467Z,985.22
2018-04-26T09:43:01.678Z,985.23
2018-04-26T09:44:01.906Z,985.29
2018-04-26T09:45:02.123Z,984.79
2018-04-26T09:46:02.321Z,984.80
2018-04-26T09:47:02.529Z,984.69
2018-04-26T09:48:02.743Z,984.69
2018-04-26T09:49:02.934Z,984.69
2018-04-26T09:50:03.155Z,984.66
2018-04-26T09:51:03.352Z,984.64
2018-04-26T09:52:03.576Z,984.67
2018-04-26T09:53:03.788Z,984.69
2018-04-26T09:54:04.040Z,984.68
2018-04-26T09:55:04.171Z,984.60
2018-04-26T09:56:04.385Z,984.69
2018-04-26T09:57:04.582Z,984.80
2018-04-26T09:58:04.800Z,984.95
2018-04-26T09:59:04.988Z,984.96
2018-04-26T10:00:05.197Z,984.87
2018-04-26T10:01:05.422Z,984.87
2018-04-26T10:02:05.634Z,984.82
2018-04-26T10:03:05.831Z,985.00
2018-04-26T10:04:06.033Z,985.30
2018-04-26T10:05:06.221Z,985.46
2018-04-26T10:06:06.434Z,985.55
2018-04-26T10:07:06.653Z,985.23
2018-04-26T10:08:06.832Z,985.10
2018-04-26T10:09:07.041Z,985.12
2018-04-26T10:10:07.355Z,985.08
2018-04-26T10:11:07.434Z,985.16
2018-04-26T10:12:07.619Z,985.13
2018-04-26T10:13:07.824Z,985.12
2018-04-26T10:14:08.027Z,985.16
2018-04-26T10:15:08.311Z,985.17
2018-04-26T10:16:08.424Z,985.22
2018-04-26T10:17:08.621Z,985.29
2018-04-26T10:18:08.843Z,985.26
2018-04-26T10:19:09.056Z,985.25
2018-04-26T10:20:09.257Z,985.21
2018-04-26T10:21:09.519Z,985.22
2018-04-26T10:22:09.663Z,985.20
2018-04-26T10:23:09.853Z,985.21
2018-04-26T10:24:10.044Z,985.22
2018-04-26T10:25:10.225Z,985.22
2018-04-26T10:26:10.417Z,985.32
2018-04-26T10:27:10.617Z,985.28
2018-04-26T10:28:10.815Z,985.38
2018-04-26T10:29:11.015Z,985.36
2018-04-26T10:30:11.221Z,985.63
2018-04-26T10:31:11.431Z,985.42
2018-04-26T10:32:11.623Z,985.54
2018-04-26T10:33:11.830Z,985.48
2018-04-26T10:34:12.049Z,985.53
2018-04-26T10:35:12.238Z,985.72
2018-04-26T10:36:12.423Z,985.95
2018-04-26T10:37:12.620Z,986.04
2018-04-26T10:38:12.807Z,985.73
2018-04-26T10:39:13.006Z,985.67
2018-04-26T10:40:13.226Z,985.64
2018-04-26T10:41:13.418Z,985.60
2018-04-26T10:42:13.630Z,985.57
2018-04-26T10:43:13.824Z,985.58
2018-04-26T10:44:14.053Z,985.58
2018-04-26T10:45:14.203Z,985.62
2018-04-26T10:46:14.399Z,985.87
2018-04-26T10:47:14.582Z,985.82
2018-04-26T10:48:14.777Z,985.65
2018-04-26T10:49:14.966Z,985.53
2018-04-26T10:50:15.177Z,985.51
2018-04-26T10:51:15.370Z,985.52
2018-04-26T10:52:15.562Z,985.50
2018-04-26T10:53:15.760Z,985.48
2018-04-26T10:54:15.970Z,985.46
2018-04-26T10:55:16.171Z,985.56
2018-04-26T10:56:16.364Z,985.54
2018-04-26T10:57:16.567Z,985.53
2018-04-26T10:58:16.769Z,985.48
2018-04-26T10:59:16.984Z,985.47
2018-04-26T11:00:17.179Z,985.50
2018-04-26T11:01:17.361Z,985.46
2018-04-26T11:02:17.565Z,985.47
2018-04-26T11:03:17.766Z,985.46
2018-04-26T11:04:17.958Z,985.47
2018-04-26T11:05:18.150Z,985.46
2018-04-26T11:06:18.336Z,985.48
2018-04-26T11:07:18.540Z,985.49
2018-04-26T11:08:18.736Z,985.47
2018-04-26T11:09:19.020Z,985.47
2018-04-26T11:10:19.136Z,985.62
2018-04-26T11:11:19.486Z,985.70
2018-04-26T11:12:19.562Z,985.64
2018-04-26T11:13:19.756Z,985.61
2018-04-26T11:14:19.957Z,985.56
2018-04-26T11:15:20.151Z,985.48
2018-04-26T11:16:20.358Z,985.44
2018-04-26T11:17:20.612Z,985.43
2018-04-26T11:18:20.774Z,985.39
2018-04-26T11:19:20.961Z,985.29
2018-04-26T11:21:54.807Z,985.29
2018-04-26T11:22:53.229Z,985.26
2018-04-26T11:23:53.436Z,985.21
2018-04-26T11:24:53.646Z,985.17
2018-04-26T11:25:53.840Z,985.19
2018-04-26T11:26:54.044Z,985.19
2018-04-26T11:27:54.214Z,985.21
2018-04-26T11:28:54.407Z,985.14
2018-04-26T11:29:54.620Z,985.14
2018-04-26T11:30:54.855Z,985.18
2018-04-26T11:31:55.023Z,985.18
2018-04-26T11:32:55.231Z,985.16
2018-04-26T11:33:55.422Z,985.11
2018-04-26T11:34:55.620Z,985.12
2018-04-26T11:35:55.828Z,985.17
2018-04-26T11:36:56.035Z,985.05
2018-04-26T11:37:56.235Z,985.14
2018-04-26T11:38:56.431Z,985.11
2018-04-26T11:39:56.635Z,985.10
2018-04-26T11:40:56.818Z,985.04
2018-04-26T11:41:57.002Z,985.07
2018-04-26T11:42:57.204Z,985.03
2018-04-26T11:43:57.406Z,984.87
2018-04-26T11:44:57.620Z,984.99
2018-04-26T11:45:57.821Z,985.00
2018-04-26T11:46:58.015Z,985.09
2018-04-26T11:47:58.215Z,985.07
2018-04-26T11:48:58.395Z,985.05
2018-04-26T11:49:58.599Z,985.07
2018-04-26T11:50:58.810Z,985.03
2018-04-26T11:51:58.991Z,985.08
2018-04-26T11:52:59.218Z,984.97
2018-04-26T11:53:59.427Z,985.03
2018-04-26T11:54:59.650Z,985.07
2018-04-26T11:55:59.851Z,985.03
2018-04-26T11:57:00.061Z,985.07
2018-04-26T11:58:00.264Z,984.96
2018-04-26T11:59:00.449Z,984.94
2018-04-26T12:00:00.664Z,984.88
2018-04-26T12:01:00.916Z,984.91
2018-04-26T12:02:01.056Z,984.91
2018-04-26T12:03:01.256Z,984.96
2018-04-26T12:04:01.468Z,984.91
2018-04-26T12:05:01.659Z,984.78
2018-04-26T12:06:01.871Z,984.92
2018-04-26T12:07:02.063Z,984.97
2018-04-26T12:08:02.300Z,984.91
2018-04-26T12:09:02.462Z,985.01
2018-04-26T12:10:02.663Z,984.96
2018-04-26T12:11:02.867Z,985.02
2018-04-26T12:12:03.075Z,985.03
2018-04-26T12:13:03.274Z,984.90
2018-04-26T12:14:03.472Z,984.96
2018-04-26T12:15:03.681Z,985.02
2018-04-26T12:16:03.880Z,985.10
2018-04-26T12:17:04.097Z,985.08
2018-04-26T12:18:04.303Z,985.15
2018-04-26T12:19:04.505Z,985.22
2018-04-26T12:20:04.701Z,985.19
2018-04-26T12:21:04.893Z,985.10
2018-04-26T12:22:05.096Z,985.22
2018-04-26T12:23:05.292Z,985.20
2018-04-26T12:24:05.505Z,985.13
2018-04-26T12:25:05.684Z,985.08
2018-04-26T12:26:05.895Z,985.15
2018-04-26T12:27:06.088Z,985.05
2018-04-26T12:28:06.300Z,984.99
2018-04-26T12:29:06.492Z,985.08
2018-04-26T12:30:06.741Z,984.97
2018-04-26T12:31:06.944Z,985.07
2018-04-26T12:32:07.145Z,985.00
2018-04-26T12:33:07.332Z,985.03
2018-04-26T12:34:07.549Z,985.06
2018-04-26T12:35:07.780Z,984.93
2018-04-26T12:36:07.937Z,985.04
2018-04-26T12:37:08.132Z,984.98
2018-04-26T12:38:08.354Z,985.04
2018-04-26T12:39:08.523Z,984.99
2018-04-26T12:40:08.695Z,984.96
2018-04-26T12:41:08.881Z,985.00
2018-04-26T12:42:09.121Z,984.91
2018-04-26T12:43:09.322Z,984.90
2018-04-26T12:44:09.521Z,984.92
2018-04-26T12:45:09.732Z,984.92
2018-04-26T12:46:09.945Z,984.87
2018-04-26T12:47:10.135Z,984.91
2018-04-26T12:48:10.357Z,984.82
2018-04-26T12:49:10.542Z,984.81
2018-04-26T12:50:10.750Z,984.87
2018-04-26T12:51:10.949Z,984.81
2018-04-26T12:52:11.151Z,984.82
2018-04-26T12:53:11.363Z,984.78
2018-04-26T12:54:11.550Z,984.75
2018-04-26T12:55:11.737Z,984.71